Time;durP1;ratioP1;P1;durP2;ratioP2;P2;SDS_P1;SDS_P2;PMS_P1;PMS_P2;Temp;Humidity;BMP_temperature;BMP_pressure;BME280_temperature;BME280_humidity;BME280_pressure;Samples;Min_cycle;Max_cycle;Signal;HPM_P1;HPM_P2
2024/01/23 18:00:43;;;;;;;20.70;6.00;;;;;;;4.54;95.98;99690.66;105898;1308;545570;-49
2024/01/23 18:03:08;;;;;;;20.20;6.50;;;;;;;4.49;96.01;99700.84;106093;1314;22990;-47
2024/01/23 18:05:34;;;;;;;17.50;5.60;;;;;;;4.45;96.66;99694.38;106321;1314;22488;-47
2024/01/23 18:07:59;;;;;;;18.50;6.80;;;;;;;4.43;96.82;99697.88;107225;1295;24255;-51
2024/01/23 18:10:24;;;;;;;27.90;8.50;;;;;;;4.41;97.43;99694.98;107227;1314;23176;-53
2024/01/23 18:12:50;;;;;;;24.30;9.00;;;;;;;4.38;97.53;99698.86;107265;1295;22084;-51
2024/01/23 18:15:15;;;;;;;18.70;7.70;;;;;;;4.32;98.32;99704.04;107346;1295;129891;-49
2024/01/23 18:17:40;;;;;;;25.60;7.30;;;;;;;4.27;98.77;99706.92;106740;1295;22583;-48
2024/01/23 18:20:06;;;;;;;19.10;6.10;;;;;;;4.24;99.48;99710.11;107462;1288;22480;-47
2024/01/23 18:22:32;;;;;;;17.30;6.50;;;;;;;4.21;99.76;99700.83;107456;1312;22275;-52
2024/01/23 18:24:57;;;;;;;17.40;5.70;;;;;;;4.19;99.83;99702.60;107459;1312;22219;-50
2024/01/23 18:27:28;;;;;;;31.00;8.50;;;;;;;4.16;99.97;99714.11;107457;1295;22372;-48
2024/01/23 18:29:54;;;;;;;27.10;7.60;;;;;;;4.19;99.95;99716.47;107464;1292;22256;-48
2024/01/23 18:32:19;;;;;;;21.90;6.70;;;;;;;4.21;99.97;99712.96;107440;1304;22994;-52
2024/01/23 18:34:44;;;;;;;24.90;6.60;;;;;;;4.22;99.94;99710.68;107484;1305;22444;-51
2024/01/23 18:37:11;;;;;;;21.00;6.10;;;;;;;4.26;99.58;99708.53;107559;1306;22185;-53
2024/01/23 18:39:36;;;;;;;20.90;6.20;;;;;;;4.23;99.63;99709.77;107511;1304;22486;-53
2024/01/23 18:42:01;;;;;;;25.20;7.70;;;;;;;4.21;99.75;99716.08;107582;1295;22325;-51
2024/01/23 18:44:27;;;;;;;18.80;7.10;;;;;;;4.20;99.70;99722.88;107618;1301;23730;-52
2024/01/23 18:46:52;;;;;;;26.90;6.40;;;;;;;4.20;99.89;99734.50;107420;1304;22512;-51
2024/01/23 18:49:20;;;;;;;20.20;6.80;;;;;;;4.25;99.62;99732.84;107458;1311;22903;-51
2024/01/23 18:51:45;;;;;;;;;;;;;;;4.26;99.33;99726.05;107451;1303;22468;-49
2024/01/23 18:54:10;;;;;;;15.80;5.90;;;;;;;4.27;99.16;99735.05;107468;1298;23090;-54
2024/01/23 18:56:35;;;;;;;22.60;7.40;;;;;;;4.26;98.97;99731.09;107527;1311;22250;-49
2024/01/23 18:59:01;;;;;;;16.80;5.70;;;;;;;4.27;98.95;99725.52;107521;1289;22242;-52
2024/01/23 19:01:27;;;;;;;24.50;6.40;;;;;;;4.28;98.54;99724.95;107453;1292;23425;-47
2024/01/23 19:03:52;;;;;;;20.80;6.30;;;;;;;4.30;98.34;99728.02;107444;1288;22457;-50
2024/01/23 19:06:18;;;;;;;25.10;7.30;;;;;;;4.31;98.03;99730.60;107496;1289;22352;-50
2024/01/23 19:08:44;;;;;;;16.10;5.20;;;;;;;4.32;97.84;99730.94;107497;1289;23052;-51
2024/01/23 19:11:10;;;;;;;36.00;12.00;;;;;;;4.33;97.44;99723.11;107499;1288;22251;-50
2024/01/23 19:13:35;;;;;;;39.50;11.70;;;;;;;4.35;97.14;99726.71;107524;1288;22266;-50
2024/01/23 19:16:01;;;;;;;34.80;9.40;;;;;;;4.37;96.92;99730.30;107474;1311;22469;-51
2024/01/23 19:18:28;;;;;;;23.80;6.90;;;;;;;4.39;96.42;99736.52;107493;1292;22314;-48
2024/01/23 19:20:53;;;;;;;27.30;8.70;;;;;;;4.38;96.02;99746.26;107510;1292;22253;-51
2024/01/23 19:23:19;;;;;;;35.70;10.30;;;;;;;4.38;95.77;99739.14;107154;1311;22620;-49
2024/01/23 19:25:44;;;;;;;32.50;9.20;;;;;;;4.39;95.60;99727.83;106428;1311;25277;-47
2024/01/23 19:28:09;;;;;;;26.70;8.00;;;;;;;4.42;95.20;99729.67;107267;1311;22223;-48
2024/01/23 19:30:35;;;;;;;32.10;11.70;;;;;;;4.44;95.24;99727.38;107530;1311;23190;-48
2024/01/23 19:33:00;;;;;;;22.90;8.30;;;;;;;4.43;94.86;99729.11;107515;1311;22442;-49
2024/01/23 19:35:25;;;;;;;33.40;8.40;;;;;;;4.42;94.66;99735.39;107503;1311;22234;-50
2024/01/23 19:37:50;;;;;;;36.50;10.50;;;;;;;4.40;94.53;99733.35;107513;1295;22325;-52
2024/01/23 19:40:16;;;;;;;32.30;9.20;;;;;;;4.38;94.31;99727.33;107374;1311;22245;-49
2024/01/23 19:42:42;;;;;;;23.10;6.50;;;;;;;4.40;94.15;99733.02;107530;1292;22419;-51
2024/01/23 19:45:07;;;;;;;26.20;6.70;;;;;;;4.39;93.84;99732.17;107511;1291;22423;-50
2024/01/23 19:47:33;;;;;;;15.70;6.10;;;;;;;4.40;93.84;99727.81;107689;1292;22392;-50
2024/01/23 19:49:58;;;;;;;16.20;5.40;;;;;;;4.40;93.70;99728.34;107377;1304;22432;-51
2024/01/23 19:52:23;;;;;;;26.20;6.70;;;;;;;4.37;93.72;99731.87;107669;1309;22277;-52
2024/01/23 19:54:49;;;;;;;17.60;6.70;;;;;;;4.38;93.70;99734.80;107696;1288;24357;-53
2024/01/23 19:57:14;;;;;;;23.40;7.00;;;;;;;4.36;93.57;99729.11;107704;1291;22276;-51
2024/01/23 19:59:41;;;;;;;19.00;6.90;;;;;;;4.36;93.60;99729.65;107680;1309;23179;-51
2024/01/23 20:02:07;;;;;;;25.40;6.50;;;;;;;4.28;93.69;99730.00;107687;1309;22425;-49
2024/01/23 20:04:33;;;;;;;24.70;7.40;;;;;;;4.30;93.67;99732.89;107723;1288;22337;-50
2024/01/23 20:06:59;;;;;;;20.90;6.60;;;;;;;4.31;93.53;99727.16;107699;1309;22250;-51
2024/01/23 20:09:24;;;;;;;26.40;7.00;;;;;;;4.31;93.45;99735.81;107687;1288;22965;-49
2024/01/23 20:11:50;;;;;;;19.30;5.20;;;;;;;4.31;93.58;99738.77;107701;1288;22251;-50
2024/01/23 20:14:16;;;;;;;20.60;7.40;;;;;;;4.29;93.62;99747.67;107441;1290;22981;-47
2024/01/23 20:16:41;;;;;;;19.20;6.20;;;;;;;4.32;93.58;99748.47;107740;1309;22286;-50
2024/01/23 20:19:06;;;;;;;25.50;5.70;;;;;;;4.35;93.55;99753.27;107751;1309;22281;-51
2024/01/23 20:21:32;;;;;;;19.30;5.90;;;;;;;4.36;93.42;99758.45;107750;1291;22276;-51
2024/01/23 20:23:57;;;;;;;18.50;5.60;;;;;;;4.35;93.44;99759.35;107754;1309;23033;-49
2024/01/23 20:26:25;;;;;;;18.80;5.90;;;;;;;4.36;93.50;99760.71;107780;1291;22801;-49
2024/01/23 20:28:50;;;;;;;18.20;5.20;;;;;;;4.37;93.44;99764.17;107791;1309;22257;-51
2024/01/23 20:31:17;;;;;;;19.00;5.40;;;;;;;4.38;93.36;99765.52;107773;1309;23259;-49
2024/01/23 20:33:43;;;;;;;22.20;5.40;;;;;;;4.39;93.28;99764.28;107770;1292;22502;-49
2024/01/23 20:36:09;;;;;;;17.40;5.10;;;;;;;4.36;93.37;99769.38;107791;1309;22418;-52
2024/01/23 20:38:35;;;;;;;25.10;6.20;;;;;;;4.37;93.30;99774.92;107774;1309;22288;-48
2024/01/23 20:41:01;;;;;;;21.20;5.40;;;;;;;4.37;93.33;99775.80;107757;1309;23028;-49
2024/01/23 20:43:27;;;;;;;19.90;5.60;;;;;;;4.31;93.33;99776.09;107761;1292;22410;-50
2024/01/23 20:45:52;;;;;;;20.80;5.50;;;;;;;4.34;93.27;99777.95;107294;1309;25320;-49
2024/01/23 20:48:18;;;;;;;21.50;5.30;;;;;;;4.30;93.23;99785.67;106904;1308;22257;-52
2024/01/23 20:50:44;;;;;;;19.20;4.90;;;;;;;4.25;93.29;99783.52;107783;1291;22236;-51
2024/01/23 20:53:09;;;;;;;15.10;4.40;;;;;;;4.17;93.46;99780.91;107769;1288;23183;-51
2024/01/23 20:55:34;;;;;;;16.70;5.10;;;;;;;4.14;93.60;99775.93;107756;1299;22477;-51
2024/01/23 20:58:00;;;;;;;19.10;4.80;;;;;;;4.11;93.73;99781.21;107741;1309;22268;-50
2024/01/23 21:00:30;;;;;;;19.50;5.10;;;;;;;4.10;93.55;99785.04;107746;1298;23005;-48
2024/01/23 21:02:55;;;;;;;21.00;5.30;;;;;;;4.07;93.57;99781.81;107760;1309;22758;-49
2024/01/23 21:05:21;;;;;;;21.10;5.10;;;;;;;4.00;93.95;99779.01;107758;1309;22435;-47
2024/01/23 21:07:52;;;;;;;17.90;4.20;;;;;;;4.00;93.95;99778.14;107785;1292;22302;-51
2024/01/23 21:10:20;;;;;;;20.90;4.70;;;;;;;3.98;94.14;99777.66;107747;1308;22247;-51
